sensor_id;sensor_type;location;lat;lon;timestamp;pressure;altitude;pressure_sealevel;temperature;humidity
13867;BME280;7003;46.982;15.248;2023-08-07T00:00:55;96508.41;;;14.61;100.00
13867;BME280;7003;46.982;15.248;2023-08-07T00:03:26;96513.09;;;14.71;100.00
13867;BME280;7003;46.982;15.248;2023-08-07T00:05:55;96505.06;;;14.71;85.07
13867;BME280;7003;46.982;15.248;2023-08-07T00:08:22;96506.31;;;14.77;94.24
13867;BME280;7003;46.982;15.248;2023-08-07T00:10:52;96507.56;;;14.90;88.85
13867;BME280;7003;46.982;15.248;2023-08-07T00:13:21;96513.34;;;14.96;79.16
13867;BME280;7003;46.982;15.248;2023-08-07T00:15:51;96511.75;;;14.88;93.27
13867;BME280;7003;46.982;15.248;2023-08-07T00:18:21;96509.03;;;14.84;88.98
13867;BME280;7003;46.982;15.248;2023-08-07T00:20:49;96516.66;;;15.23;71.32
13867;BME280;7003;46.982;15.248;2023-08-07T00:23:19;96515.00;;;15.08;84.25
13867;BME280;7003;46.982;15.248;2023-08-07T00:25:45;96513.75;;;14.98;84.31
13867;BME280;7003;46.982;15.248;2023-08-07T00:28:12;96512.50;;;14.88;92.19
13867;BME280;7003;46.982;15.248;2023-08-07T00:30:39;96516.03;;;14.96;82.81
13867;BME280;7003;46.982;15.248;2023-08-07T00:33:09;96516.78;;;14.93;86.04
13867;BME280;7003;46.982;15.248;2023-08-07T00:35:39;96505.38;;;14.99;78.44
13867;BME280;7003;46.982;15.248;2023-08-07T00:38:10;96511.03;;;14.94;86.21
13867;BME280;7003;46.982;15.248;2023-08-07T00:40:37;96508.47;;;15.05;77.48
13867;BME280;7003;46.982;15.248;2023-08-07T00:43:07;96514.34;;;15.21;66.88
13867;BME280;7003;46.982;15.248;2023-08-07T00:45:46;96511.75;;;15.28;70.03
13867;BME280;7003;46.982;15.248;2023-08-07T00:48:16;96516.31;;;15.28;69.61
13867;BME280;7003;46.982;15.248;2023-08-07T00:50:46;96513.47;;;15.07;79.89
13867;BME280;7003;46.982;15.248;2023-08-07T00:53:16;96516.66;;;14.82;87.11
13867;BME280;7003;46.982;15.248;2023-08-07T00:55:44;96505.19;;;14.82;85.11
13867;BME280;7003;46.982;15.248;2023-08-07T00:58:14;96506.19;;;15.07;67.43
13867;BME280;7003;46.982;15.248;2023-08-07T01:00:41;96509.59;;;15.04;87.25
13867;BME280;7003;46.982;15.248;2023-08-07T01:03:11;96500.84;;;15.11;70.75
13867;BME280;7003;46.982;15.248;2023-08-07T01:05:39;96505.81;;;14.68;100.00
13867;BME280;7003;46.982;15.248;2023-08-07T01:08:09;96500.38;;;14.61;96.15
13867;BME280;7003;46.982;15.248;2023-08-07T01:10:48;96503.69;;;14.47;100.00
13867;BME280;7003;46.982;15.248;2023-08-07T01:13:23;96505.09;;;14.11;100.00
13867;BME280;7003;46.982;15.248;2023-08-07T01:15:56;96500.25;;;13.64;100.00
13867;BME280;7003;46.982;15.248;2023-08-07T01:18:30;96499.56;;;13.67;100.00
13867;BME280;7003;46.982;15.248;2023-08-07T01:20:58;96503.06;;;13.48;100.00
13867;BME280;7003;46.982;15.248;2023-08-07T01:23:29;96500.78;;;13.47;100.00
13867;BME280;7003;46.982;15.248;2023-08-07T01:25:58;96505.50;;;13.31;100.00
13867;BME280;7003;46.982;15.248;2023-08-07T01:28:30;96505.38;;;13.24;100.00
13867;BME280;7003;46.982;15.248;2023-08-07T01:31:03;96499.28;;;13.23;100.00
13867;BME280;7003;46.982;15.248;2023-08-07T01:33:36;96497.41;;;13.27;100.00
13867;BME280;7003;46.982;15.248;2023-08-07T01:36:10;96496.22;;;13.25;100.00
13867;BME280;7003;46.982;15.248;2023-08-07T01:38:39;96496.94;;;13.22;100.00
13867;BME280;7003;46.982;15.248;2023-08-07T01:41:07;96498.97;;;13.28;100.00
13867;BME280;7003;46.982;15.248;2023-08-07T01:43:37;96491.13;;;13.39;100.00
13867;BME280;7003;46.982;15.248;2023-08-07T01:46:04;96496.91;;;13.44;100.00
13867;BME280;7003;46.982;15.248;2023-08-07T01:48:32;96492.81;;;13.51;100.00
13867;BME280;7003;46.982;15.248;2023-08-07T01:50:59;96495.56;;;13.54;100.00
13867;BME280;7003;46.982;15.248;2023-08-07T01:53:26;96497.34;;;13.46;100.00
13867;BME280;7003;46.982;15.248;2023-08-07T01:55:54;96493.13;;;13.72;100.00
13867;BME280;7003;46.982;15.248;2023-08-07T01:58:24;96496.91;;;13.71;100.00
13867;BME280;7003;46.982;15.248;2023-08-07T02:00:54;96498.31;;;13.61;100.00
13867;BME280;7003;46.982;15.248;2023-08-07T02:03:21;96510.06;;;13.30;100.00
13867;BME280;7003;46.982;15.248;2023-08-07T02:05:50;96510.81;;;12.85;100.00
13867;BME280;7003;46.982;15.248;2023-08-07T02:08:19;96513.59;;;12.31;100.00
13867;BME280;7003;46.982;15.248;2023-08-07T02:10:46;96508.78;;;12.02;100.00
13867;BME280;7003;46.982;15.248;2023-08-07T02:13:15;96515.31;;;12.43;100.00
13867;BME280;7003;46.982;15.248;2023-08-07T02:15:42;96514.31;;;12.31;100.00
13867;BME280;7003;46.982;15.248;2023-08-07T02:18:09;96512.22;;;12.02;100.00
13867;BME280;7003;46.982;15.248;2023-08-07T02:20:37;96503.25;;;12.10;100.00
13867;BME280;7003;46.982;15.248;2023-08-07T02:23:06;96510.75;;;12.05;100.00
13867;BME280;7003;46.982;15.248;2023-08-07T02:25:35;96505.06;;;12.06;100.00
13867;BME280;7003;46.982;15.248;2023-08-07T02:28:03;96505.56;;;12.12;100.00
13867;BME280;7003;46.982;15.248;2023-08-07T02:30:31;96501.19;;;12.04;100.00
13867;BME280;7003;46.982;15.248;2023-08-07T02:32:58;96503.09;;;12.03;100.00
13867;BME280;7003;46.982;15.248;2023-08-07T02:35:28;96504.50;;;11.97;100.00
13867;BME280;7003;46.982;15.248;2023-08-07T02:37:55;96498.06;;;11.98;100.00
13867;BME280;7003;46.982;15.248;2023-08-07T02:40:24;96503.72;;;11.97;100.00
13867;BME280;7003;46.982;15.248;2023-08-07T02:42:51;96502.19;;;11.95;100.00
13867;BME280;7003;46.982;15.248;2023-08-07T02:45:20;96499.09;;;12.32;100.00
13867;BME280;7003;46.982;15.248;2023-08-07T02:47:49;96497.56;;;12.69;100.00
13867;BME280;7003;46.982;15.248;2023-08-07T02:50:16;96502.16;;;12.72;100.00
13867;BME280;7003;46.982;15.248;2023-08-07T02:52:43;96508.84;;;12.63;100.00
13867;BME280;7003;46.982;15.248;2023-08-07T02:55:10;96505.84;;;12.26;100.00
13867;BME280;7003;46.982;15.248;2023-08-07T02:57:38;96510.59;;;11.98;100.00
13867;BME280;7003;46.982;15.248;2023-08-07T03:00:06;96500.16;;;12.08;100.00
13867;BME280;7003;46.982;15.248;2023-08-07T03:02:33;96502.84;;;11.92;100.00
13867;BME280;7003;46.982;15.248;2023-08-07T03:05:02;96500.75;;;11.82;100.00
13867;BME280;7003;46.982;15.248;2023-08-07T03:07:29;96502.72;;;11.85;100.00
13867;BME280;7003;46.982;15.248;2023-08-07T03:09:57;96506.78;;;11.79;100.00
13867;BME280;7003;46.982;15.248;2023-08-07T03:12:26;96506.59;;;11.88;100.00
13867;BME280;7003;46.982;15.248;2023-08-07T03:14:54;96507.56;;;11.64;100.00
13867;BME280;7003;46.982;15.248;2023-08-07T03:17:21;96508.81;;;11.70;100.00
13867;BME280;7003;46.982;15.248;2023-08-07T03:19:50;96511.44;;;11.51;100.00
13867;BME280;7003;46.982;15.248;2023-08-07T03:22:22;96514.19;;;11.39;100.00
13867;BME280;7003;46.982;15.248;2023-08-07T03:24:49;96529.38;;;11.38;100.00
13867;BME280;7003;46.982;15.248;2023-08-07T03:27:16;96527.44;;;11.35;100.00
13867;BME280;7003;46.982;15.248;2023-08-07T03:29:46;96527.88;;;11.22;100.00
13867;BME280;7003;46.982;15.248;2023-08-07T03:32:13;96526.16;;;11.13;100.00
13867;BME280;7003;46.982;15.248;2023-08-07T03:34:44;96528.72;;;11.10;100.00
13867;BME280;7003;46.982;15.248;2023-08-07T03:37:14;96529.03;;;11.08;100.00
13867;BME280;7003;46.982;15.248;2023-08-07T03:39:42;96536.25;;;11.08;100.00
13867;BME280;7003;46.982;15.248;2023-08-07T03:42:13;96531.97;;;11.03;100.00
13867;BME280;7003;46.982;15.248;2023-08-07T03:44:41;96529.03;;;10.93;100.00
13867;BME280;7003;46.982;15.248;2023-08-07T03:47:12;96542.47;;;10.84;100.00
13867;BME280;7003;46.982;15.248;2023-08-07T03:49:42;96543.53;;;10.95;100.00
13867;BME280;7003;46.982;15.248;2023-08-07T03:52:10;96543.81;;;10.90;100.00
13867;BME280;7003;46.982;15.248;2023-08-07T03:54:39;96547.13;;;10.87;100.00
13867;BME280;7003;46.982;15.248;2023-08-07T03:57:11;96537.16;;;11.94;100.00
13867;BME280;7003;46.982;15.248;2023-08-07T03:59:39;96548.66;;;12.14;100.00
13867;BME280;7003;46.982;15.248;2023-08-07T04:02:07;96550.44;;;12.87;100.00
13867;BME280;7003;46.982;15.248;2023-08-07T04:04:34;96546.69;;;13.30;96.00
13867;BME280;7003;46.982;15.248;2023-08-07T04:07:05;96552.84;;;13.34;100.00
13867;BME280;7003;46.982;15.248;2023-08-07T04:09:34;96544.66;;;13.04;100.00
13867;BME280;7003;46.982;15.248;2023-08-07T04:12:02;96547.38;;;12.85;100.00
13867;BME280;7003;46.982;15.248;2023-08-07T04:14:31;96553.13;;;12.87;100.00
13867;BME280;7003;46.982;15.248;2023-08-07T04:16:58;96551.81;;;12.58;100.00
13867;BME280;7003;46.982;15.248;2023-08-07T04:19:26;96553.91;;;12.49;100.00
13867;BME280;7003;46.982;15.248;2023-08-07T04:21:54;96553.00;;;12.41;100.00
13867;BME280;7003;46.982;15.248;2023-08-07T04:24:22;96554.66;;;12.46;100.00
13867;BME280;7003;46.982;15.248;2023-08-07T04:26:50;96554.88;;;12.79;100.00
13867;BME280;7003;46.982;15.248;2023-08-07T04:29:19;96553.34;;;12.78;100.00
13867;BME280;7003;46.982;15.248;2023-08-07T04:31:48;96552.09;;;12.91;100.00
13867;BME280;7003;46.982;15.248;2023-08-07T04:34:16;96554.34;;;13.12;100.00
13867;BME280;7003;46.982;15.248;2023-08-07T04:36:46;96560.56;;;12.97;100.00
13867;BME280;7003;46.982;15.248;2023-08-07T04:39:17;96562.91;;;12.79;100.00
13867;BME280;7003;46.982;15.248;2023-08-07T04:41:44;96576.53;;;12.55;100.00
13867;BME280;7003;46.982;15.248;2023-08-07T04:44:13;96577.66;;;12.54;100.00
13867;BME280;7003;46.982;15.248;2023-08-07T04:46:44;96580.41;;;12.38;100.00
13867;BME280;7003;46.982;15.248;2023-08-07T04:49:19;96581.38;;;12.30;100.00
13867;BME280;7003;46.982;15.248;2023-08-07T04:51:50;96581.91;;;12.20;100.00
13867;BME280;7003;46.982;15.248;2023-08-07T04:54:18;96581.25;;;12.07;100.00
13867;BME280;7003;46.982;15.248;2023-08-07T04:56:46;96577.09;;;12.10;100.00
13867;BME280;7003;46.982;15.248;2023-08-07T04:59:16;96581.63;;;12.25;100.00
13867;BME280;7003;46.982;15.248;2023-08-07T05:01:47;96575.31;;;12.33;100.00
13867;BME280;7003;46.982;15.248;2023-08-07T05:04:15;96571.25;;;12.97;100.00
13867;BME280;7003;46.982;15.248;2023-08-07T05:06:44;96570.59;;;13.45;100.00
13867;BME280;7003;46.982;15.248;2023-08-07T05:09:12;96568.16;;;13.60;100.00
13867;BME280;7003;46.982;15.248;2023-08-07T05:11:42;96569.22;;;13.78;90.99
13867;BME280;7003;46.982;15.248;2023-08-07T05:14:13;96564.78;;;13.89;90.39
13867;BME280;7003;46.982;15.248;2023-08-07T05:16:43;96574.56;;;13.78;100.00
13867;BME280;7003;46.982;15.248;2023-08-07T05:19:14;96568.78;;;13.76;100.00
13867;BME280;7003;46.982;15.248;2023-08-07T05:21:45;96581.75;;;13.28;100.00
13867;BME280;7003;46.982;15.248;2023-08-07T05:24:16;96588.94;;;12.86;100.00
13867;BME280;7003;46.982;15.248;2023-08-07T05:26:44;96586.13;;;12.79;100.00
13867;BME280;7003;46.982;15.248;2023-08-07T05:29:12;96587.41;;;12.65;100.00
13867;BME280;7003;46.982;15.248;2023-08-07T05:31:40;96591.94;;;12.61;100.00
13867;BME280;7003;46.982;15.248;2023-08-07T05:34:08;96592.06;;;12.68;100.00
13867;BME280;7003;46.982;15.248;2023-08-07T05:36:38;96597.50;;;12.95;100.00
13867;BME280;7003;46.982;15.248;2023-08-07T05:39:09;96595.75;;;13.02;100.00
13867;BME280;7003;46.982;15.248;2023-08-07T05:41:37;96608.59;;;13.35;100.00
13867;BME280;7003;46.982;15.248;2023-08-07T05:44:05;96598.66;;;13.36;100.00
13867;BME280;7003;46.982;15.248;2023-08-07T05:46:33;96598.56;;;13.52;100.00
13867;BME280;7003;46.982;15.248;2023-08-07T05:49:01;96606.88;;;13.46;100.00
13867;BME280;7003;46.982;15.248;2023-08-07T05:51:30;96615.25;;;13.45;100.00
13867;BME280;7003;46.982;15.248;2023-08-07T05:53:58;96613.47;;;13.53;100.00
13867;BME280;7003;46.982;15.248;2023-08-07T05:56:30;96623.59;;;13.43;100.00
13867;BME280;7003;46.982;15.248;2023-08-07T05:59:00;96618.84;;;13.33;100.00
13867;BME280;7003;46.982;15.248;2023-08-07T06:01:30;96626.59;;;13.38;100.00
13867;BME280;7003;46.982;15.248;2023-08-07T06:03:58;96628.41;;;13.34;100.00
13867;BME280;7003;46.982;15.248;2023-08-07T06:06:26;96635.34;;;13.16;100.00
13867;BME280;7003;46.982;15.248;2023-08-07T06:08:54;96642.53;;;13.35;100.00
13867;BME280;7003;46.982;15.248;2023-08-07T06:11:25;96633.03;;;13.37;100.00
13867;BME280;7003;46.982;15.248;2023-08-07T06:13:56;96633.88;;;13.41;100.00
13867;BME280;7003;46.982;15.248;2023-08-07T06:16:24;96640.34;;;13.40;100.00
13867;BME280;7003;46.982;15.248;2023-08-07T06:18:51;96641.53;;;13.43;100.00
13867;BME280;7003;46.982;15.248;2023-08-07T06:21:22;96646.00;;;13.58;100.00
13867;BME280;7003;46.982;15.248;2023-08-07T06:23:52;96645.66;;;13.60;100.00
13867;BME280;7003;46.982;15.248;2023-08-07T06:26:20;96649.69;;;13.73;100.00
13867;BME280;7003;46.982;15.248;2023-08-07T06:28:47;96653.53;;;13.75;100.00
13867;BME280;7003;46.982;15.248;2023-08-07T06:31:19;96653.78;;;13.90;100.00
13867;BME280;7003;46.982;15.248;2023-08-07T06:33:46;96650.09;;;13.98;100.00
13867;BME280;7003;46.982;15.248;2023-08-07T06:36:16;96656.72;;;14.07;100.00
13867;BME280;7003;46.982;15.248;2023-08-07T06:38:46;96661.16;;;14.22;100.00
13867;BME280;7003;46.982;15.248;2023-08-07T06:41:16;96664.03;;;14.37;100.00
13867;BME280;7003;46.982;15.248;2023-08-07T06:43:44;96664.88;;;14.41;100.00
13867;BME280;7003;46.982;15.248;2023-08-07T06:46:12;96670.53;;;14.36;100.00
13867;BME280;7003;46.982;15.248;2023-08-07T06:48:41;96670.66;;;14.43;100.00
13867;BME280;7003;46.982;15.248;2023-08-07T06:51:11;96660.78;;;14.47;100.00
13867;BME280;7003;46.982;15.248;2023-08-07T06:53:38;96665.09;;;14.55;100.00
13867;BME280;7003;46.982;15.248;2023-08-07T06:56:08;96668.47;;;14.78;100.00
13867;BME280;7003;46.982;15.248;2023-08-07T06:58:37;96665.06;;;14.81;100.00
13867;BME280;7003;46.982;15.248;2023-08-07T07:01:05;96661.56;;;15.07;100.00
13867;BME280;7003;46.982;15.248;2023-08-07T07:03:32;96670.63;;;14.99;100.00
13867;BME280;7003;46.982;15.248;2023-08-07T07:06:01;96661.78;;;14.95;100.00
13867;BME280;7003;46.982;15.248;2023-08-07T07:08:28;96679.03;;;14.97;100.00
13867;BME280;7003;46.982;15.248;2023-08-07T07:10:58;96680.38;;;15.14;100.00
13867;BME280;7003;46.982;15.248;2023-08-07T07:13:29;96669.47;;;15.30;100.00
13867;BME280;7003;46.982;15.248;2023-08-07T07:15:56;96676.28;;;15.24;100.00
13867;BME280;7003;46.982;15.248;2023-08-07T07:18:26;96684.72;;;15.26;100.00
13867;BME280;7003;46.982;15.248;2023-08-07T07:20:56;96675.69;;;15.41;100.00
13867;BME280;7003;46.982;15.248;2023-08-07T07:23:26;96679.56;;;15.44;100.00
13867;BME280;7003;46.982;15.248;2023-08-07T07:25:56;96681.63;;;15.57;100.00
13867;BME280;7003;46.982;15.248;2023-08-07T07:28:27;96678.63;;;15.62;100.00
13867;BME280;7003;46.982;15.248;2023-08-07T07:30:57;96677.88;;;15.65;100.00
13867;BME280;7003;46.982;15.248;2023-08-07T07:33:24;96675.47;;;15.94;100.00
13867;BME280;7003;46.982;15.248;2023-08-07T07:35:54;96680.59;;;16.09;100.00
13867;BME280;7003;46.982;15.248;2023-08-07T07:38:21;96681.00;;;16.15;100.00
13867;BME280;7003;46.982;15.248;2023-08-07T07:40:50;96679.91;;;16.27;100.00
13867;BME280;7003;46.982;15.248;2023-08-07T07:43:22;96685.78;;;16.39;100.00
13867;BME280;7003;46.982;15.248;2023-08-07T07:45:49;96688.50;;;16.46;100.00
13867;BME280;7003;46.982;15.248;2023-08-07T07:48:19;96691.34;;;16.64;100.00
13867;BME280;7003;46.982;15.248;2023-08-07T07:50:46;96694.09;;;16.82;100.00
13867;BME280;7003;46.982;15.248;2023-08-07T07:53:17;96692.28;;;17.04;100.00
13867;BME280;7003;46.982;15.248;2023-08-07T07:55:47;96686.97;;;17.14;100.00
13867;BME280;7003;46.982;15.248;2023-08-07T07:58:19;96680.88;;;17.24;100.00
13867;BME280;7003;46.982;15.248;2023-08-07T08:00:49;96686.66;;;17.30;100.00
13867;BME280;7003;46.982;15.248;2023-08-07T08:03:19;96689.72;;;17.36;100.00
13867;BME280;7003;46.982;15.248;2023-08-07T08:05:49;96697.03;;;17.31;100.00
13867;BME280;7003;46.982;15.248;2023-08-07T08:08:20;96699.69;;;17.28;76.75
13867;BME280;7003;46.982;15.248;2023-08-07T08:10:47;96698.94;;;17.35;88.11
13867;BME280;7003;46.982;15.248;2023-08-07T08:13:14;96694.75;;;17.41;93.86
13867;BME280;7003;46.982;15.248;2023-08-07T08:15:44;96700.22;;;17.62;81.24
13867;BME280;7003;46.982;15.248;2023-08-07T08:18:12;96710.59;;;17.71;84.49
13867;BME280;7003;46.982;15.248;2023-08-07T08:20:41;96704.47;;;17.77;75.89
13867;BME280;7003;46.982;15.248;2023-08-07T08:23:09;96716.75;;;17.71;66.77
13867;BME280;7003;46.982;15.248;2023-08-07T08:25:38;96716.41;;;17.87;76.82
13867;BME280;7003;46.982;15.248;2023-08-07T08:28:09;96717.53;;;17.96;69.12
13867;BME280;7003;46.982;15.248;2023-08-07T08:30:36;96721.78;;;18.08;78.06
13867;BME280;7003;46.982;15.248;2023-08-07T08:33:07;96720.25;;;18.03;65.67
13867;BME280;7003;46.982;15.248;2023-08-07T08:35:38;96717.19;;;18.01;68.14
13867;BME280;7003;46.982;15.248;2023-08-07T08:38:08;96722.91;;;17.89;68.26
13867;BME280;7003;46.982;15.248;2023-08-07T08:40:38;96725.66;;;18.11;66.67
13867;BME280;7003;46.982;15.248;2023-08-07T08:43:09;96717.94;;;18.05;65.64
13867;BME280;7003;46.982;15.248;2023-08-07T08:45:39;96726.44;;;18.18;68.16
13867;BME280;7003;46.982;15.248;2023-08-07T08:48:12;96726.81;;;18.24;61.00
13867;BME280;7003;46.982;15.248;2023-08-07T08:50:46;96724.88;;;18.38;55.46
13867;BME280;7003;46.982;15.248;2023-08-07T08:53:20;96735.66;;;18.31;60.11
13867;BME280;7003;46.982;15.248;2023-08-07T08:55:51;96736.41;;;18.32;60.00
13867;BME280;7003;46.982;15.248;2023-08-07T08:58:21;96734.88;;;18.38;56.79
13867;BME280;7003;46.982;15.248;2023-08-07T09:00:52;96742.56;;;18.29;54.91
13867;BME280;7003;46.982;15.248;2023-08-07T09:03:21;96732.19;;;18.31;55.60
13867;BME280;7003;46.982;15.248;2023-08-07T09:05:52;96739.50;;;18.30;62.68
13867;BME280;7003;46.982;15.248;2023-08-07T09:08:25;96749.13;;;18.35;61.64
13867;BME280;7003;46.982;15.248;2023-08-07T09:10:57;96748.72;;;18.33;59.09
13867;BME280;7003;46.982;15.248;2023-08-07T09:13:24;96753.34;;;18.46;58.30
13867;BME280;7003;46.982;15.248;2023-08-07T09:15:58;96750.25;;;18.44;58.75
13867;BME280;7003;46.982;15.248;2023-08-07T09:18:29;96747.22;;;18.64;57.15
13867;BME280;7003;46.982;15.248;2023-08-07T09:20:59;96753.38;;;18.64;54.15
13867;BME280;7003;46.982;15.248;2023-08-07T09:23:30;96763.00;;;18.58;52.34
13867;BME280;7003;46.982;15.248;2023-08-07T09:26:01;96753.34;;;18.61;55.28
13867;BME280;7003;46.982;15.248;2023-08-07T09:28:30;96757.59;;;18.79;55.18
13867;BME280;7003;46.982;15.248;2023-08-07T09:30:59;96758.72;;;18.86;50.11
13867;BME280;7003;46.982;15.248;2023-08-07T09:33:32;96761.00;;;18.91;50.70
13867;BME280;7003;46.982;15.248;2023-08-07T09:36:02;96755.59;;;19.01;54.33
13867;BME280;7003;46.982;15.248;2023-08-07T09:38:33;96767.13;;;19.09;49.62
13867;BME280;7003;46.982;15.248;2023-08-07T09:41:01;96764.81;;;19.18;51.11
13867;BME280;7003;46.982;15.248;2023-08-07T09:43:29;96772.41;;;19.44;52.28
13867;BME280;7003;46.982;15.248;2023-08-07T09:46:03;96772.41;;;19.51;49.55
13867;BME280;7003;46.982;15.248;2023-08-07T09:48:32;96773.56;;;19.54;49.34
13867;BME280;7003;46.982;15.248;2023-08-07T09:51:05;96771.94;;;19.71;51.87
13867;BME280;7003;46.982;15.248;2023-08-07T09:53:33;96771.66;;;19.51;50.74
13867;BME280;7003;46.982;15.248;2023-08-07T09:56:01;96787.47;;;19.38;49.93
13867;BME280;7003;46.982;15.248;2023-08-07T09:58:29;96772.47;;;19.34;51.06
13867;BME280;7003;46.982;15.248;2023-08-07T10:01:00;96778.63;;;19.31;50.89
13867;BME280;7003;46.982;15.248;2023-08-07T10:03:27;96787.94;;;19.12;52.17
13867;BME280;7003;46.982;15.248;2023-08-07T10:06:00;96781.78;;;19.04;48.82
13867;BME280;7003;46.982;15.248;2023-08-07T10:08:29;96782.50;;;19.26;49.58
13867;BME280;7003;46.982;15.248;2023-08-07T10:10:58;96796.34;;;19.28;57.21
13867;BME280;7003;46.982;15.248;2023-08-07T10:13:26;96796.75;;;19.23;52.51
13867;BME280;7003;46.982;15.248;2023-08-07T10:15:54;96802.50;;;19.32;50.33
13867;BME280;7003;46.982;15.248;2023-08-07T10:18:25;96812.13;;;19.40;55.87
13867;BME280;7003;46.982;15.248;2023-08-07T10:20:52;96810.22;;;19.30;50.95
13867;BME280;7003;46.982;15.248;2023-08-07T10:23:21;96810.19;;;19.37;52.72
13867;BME280;7003;46.982;15.248;2023-08-07T10:25:51;96808.94;;;19.70;53.79
13867;BME280;7003;46.982;15.248;2023-08-07T10:28:22;96809.72;;;19.74;53.16
13867;BME280;7003;46.982;15.248;2023-08-07T10:30:53;96807.75;;;19.82;50.46
13867;BME280;7003;46.982;15.248;2023-08-07T10:33:23;96806.88;;;19.99;48.86
13867;BME280;7003;46.982;15.248;2023-08-07T10:35:52;96806.09;;;19.98;45.88
13867;BME280;7003;46.982;15.248;2023-08-07T10:38:22;96815.41;;;19.90;48.03
13867;BME280;7003;46.982;15.248;2023-08-07T10:41:00;96811.63;;;19.81;50.00
13867;BME280;7003;46.982;15.248;2023-08-07T10:43:36;96815.50;;;19.69;48.36
13867;BME280;7003;46.982;15.248;2023-08-07T10:46:09;96826.69;;;19.68;48.75
13867;BME280;7003;46.982;15.248;2023-08-07T10:48:38;96821.22;;;19.89;52.93
13867;BME280;7003;46.982;15.248;2023-08-07T10:51:12;96823.13;;;19.92;50.08
13867;BME280;7003;46.982;15.248;2023-08-07T10:53:44;96818.53;;;19.89;46.29
13867;BME280;7003;46.982;15.248;2023-08-07T10:56:16;96830.00;;;20.00;52.84
13867;BME280;7003;46.982;15.248;2023-08-07T10:58:49;96835.06;;;19.91;47.58
13867;BME280;7003;46.982;15.248;2023-08-07T11:01:27;96829.28;;;19.96;50.99
13867;BME280;7003;46.982;15.248;2023-08-07T11:03:57;96837.38;;;19.92;48.26
13867;BME280;7003;46.982;15.248;2023-08-07T11:06:26;96830.91;;;19.76;46.98
13867;BME280;7003;46.982;15.248;2023-08-07T11:08:57;96837.13;;;19.66;49.34
13867;BME280;7003;46.982;15.248;2023-08-07T11:11:27;96832.50;;;19.63;48.12
13867;BME280;7003;46.982;15.248;2023-08-07T11:13:57;96836.72;;;19.71;50.71
13867;BME280;7003;46.982;15.248;2023-08-07T11:16:25;96840.22;;;19.57;49.48
13867;BME280;7003;46.982;15.248;2023-08-07T11:18:53;96834.00;;;19.74;51.19
13867;BME280;7003;46.982;15.248;2023-08-07T11:21:24;96839.69;;;19.90;52.01
13867;BME280;7003;46.982;15.248;2023-08-07T11:23:52;96838.19;;;19.86;52.98
13867;BME280;7003;46.982;15.248;2023-08-07T11:26:20;96847.38;;;20.03;49.93
13867;BME280;7003;46.982;15.248;2023-08-07T11:28:50;96850.09;;;19.95;48.65
13867;BME280;7003;46.982;15.248;2023-08-07T11:31:18;96850.94;;;19.75;49.27
13867;BME280;7003;46.982;15.248;2023-08-07T11:33:45;96848.69;;;19.63;45.45
13867;BME280;7003;46.982;15.248;2023-08-07T11:36:13;96845.53;;;19.75;50.70
13867;BME280;7003;46.982;15.248;2023-08-07T11:38:44;96850.25;;;19.56;53.12
13867;BME280;7003;46.982;15.248;2023-08-07T11:41:16;96849.47;;;19.45;48.23
13867;BME280;7003;46.982;15.248;2023-08-07T11:43:48;96851.03;;;19.39;47.23
13867;BME280;7003;46.982;15.248;2023-08-07T11:46:16;96865.72;;;19.24;50.70
13867;BME280;7003;46.982;15.248;2023-08-07T11:48:45;96862.63;;;19.22;50.55
13867;BME280;7003;46.982;15.248;2023-08-07T11:51:16;96861.84;;;19.25;47.15
13867;BME280;7003;46.982;15.248;2023-08-07T11:53:43;96856.44;;;19.29;48.38
13867;BME280;7003;46.982;15.248;2023-08-07T11:56:13;96864.94;;;19.27;50.37
13867;BME280;7003;46.982;15.248;2023-08-07T11:58:42;96868.78;;;19.15;49.53
13867;BME280;7003;46.982;15.248;2023-08-07T12:01:13;96862.66;;;19.04;48.75
13867;BME280;7003;46.982;15.248;2023-08-07T12:03:51;96867.63;;;19.06;48.05
13867;BME280;7003;46.982;15.248;2023-08-07T12:06:20;96868.81;;;18.98;47.04
13867;BME280;7003;46.982;15.248;2023-08-07T12:08:49;96872.66;;;18.86;48.33
13867;BME280;7003;46.982;15.248;2023-08-07T12:11:19;96871.88;;;19.00;50.88
13867;BME280;7003;46.982;15.248;2023-08-07T12:13:47;96881.91;;;18.85;48.70
13867;BME280;7003;46.982;15.248;2023-08-07T12:16:17;96872.28;;;18.77;47.77
13867;BME280;7003;46.982;15.248;2023-08-07T12:18:45;96879.59;;;18.73;48.64
13867;BME280;7003;46.982;15.248;2023-08-07T12:21:16;96886.53;;;18.81;52.24
13867;BME280;7003;46.982;15.248;2023-08-07T12:23:45;96886.53;;;18.70;49.50
13867;BME280;7003;46.982;15.248;2023-08-07T12:26:16;96876.53;;;18.89;51.46
13867;BME280;7003;46.982;15.248;2023-08-07T12:28:44;96880.34;;;18.98;50.42
13867;BME280;7003;46.982;15.248;2023-08-07T12:31:13;96889.22;;;18.95;50.48
13867;BME280;7003;46.982;15.248;2023-08-07T12:33:44;96881.16;;;18.95;50.57
13867;BME280;7003;46.982;15.248;2023-08-07T12:36:11;96889.59;;;19.01;51.19
13867;BME280;7003;46.982;15.248;2023-08-07T12:38:43;96886.91;;;19.15;48.01
13867;BME280;7003;46.982;15.248;2023-08-07T12:41:12;96895.38;;;19.06;54.63
13867;BME280;7003;46.982;15.248;2023-08-07T12:43:40;96900.78;;;19.10;52.48
13867;BME280;7003;46.982;15.248;2023-08-07T12:46:08;96888.81;;;19.18;51.28
13867;BME280;7003;46.982;15.248;2023-08-07T12:48:35;96893.44;;;19.07;50.56
13867;BME280;7003;46.982;15.248;2023-08-07T12:51:04;96898.03;;;19.31;50.28
13867;BME280;7003;46.982;15.248;2023-08-07T12:53:34;96887.28;;;19.24;48.11
13867;BME280;7003;46.982;15.248;2023-08-07T12:56:01;96893.06;;;19.08;47.81
13867;BME280;7003;46.982;15.248;2023-08-07T12:58:30;96893.06;;;19.12;46.96
13867;BME280;7003;46.982;15.248;2023-08-07T13:00:58;96893.81;;;19.23;50.37
13867;BME280;7003;46.982;15.248;2023-08-07T13:03:25;96900.00;;;19.06;45.96
13867;BME280;7003;46.982;15.248;2023-08-07T13:05:52;96898.09;;;18.96;47.36